TAF LFPN
METAR LFPN
LFPN 280930Z AUTO 31014KT 9999 OVC013/// ///TCU 04/02 Q1002 TEMPO 4000 -SHRA BECMG 32015G25KT=
LFPN 280900Z AUTO 32014KT 9999 OVC013 04/02 Q1001 TEMPO 4000 -SHRA BKN012 BKN030TCU BECMG 32015G25KT=
LFPN 280830Z AUTO 32017KT 9999 OVC015 04/02 Q1001 TEMPO 4000 -SHRA BKN012 BKN030TCU BECMG 32015G25KT=
LFPN 280800Z AUTO 33017KT 9999 OVC015 04/02 Q1001 TEMPO 4000 -SHRA BKN008 BKN020TCU BECMG 33015G28KT=
LFPN 280730Z AUTO 32016KT 9999 BKN014 OVC019 04/02 Q1000 TEMPO 4000 -SHRA BKN008 BKN020TCU BECMG 33015G28KT=
WC LFPN
WS LFPN
WV LFPN